sensor_id;sensor_type;location;lat;lon;timestamp;P1;durP1;ratioP1;P2;durP2;ratioP2
32228;SDS011;18717;48.034;11.186;2023-06-14T00:01:59;13.27;;;12.38;;
32228;SDS011;18717;48.034;11.186;2023-06-14T00:04:27;12.93;;;11.80;;
32228;SDS011;18717;48.034;11.186;2023-06-14T00:06:55;13.45;;;12.55;;
32228;SDS011;18717;48.034;11.186;2023-06-14T00:09:23;12.50;;;11.50;;
32228;SDS011;18717;48.034;11.186;2023-06-14T00:11:51;13.48;;;12.50;;
32228;SDS011;18717;48.034;11.186;2023-06-14T00:14:19;13.13;;;12.18;;
32228;SDS011;18717;48.034;11.186;2023-06-14T00:16:47;12.90;;;11.90;;
32228;SDS011;18717;48.034;11.186;2023-06-14T00:19:16;13.70;;;12.48;;
32228;SDS011;18717;48.034;11.186;2023-06-14T00:21:43;13.02;;;12.13;;
32228;SDS011;18717;48.034;11.186;2023-06-14T00:24:11;13.70;;;12.80;;
32228;SDS011;18717;48.034;11.186;2023-06-14T00:26:39;12.93;;;12.13;;
32228;SDS011;18717;48.034;11.186;2023-06-14T00:29:07;12.93;;;11.85;;
32228;SDS011;18717;48.034;11.186;2023-06-14T00:31:34;12.90;;;11.80;;
32228;SDS011;18717;48.034;11.186;2023-06-14T00:34:02;13.80;;;12.82;;
32228;SDS011;18717;48.034;11.186;2023-06-14T00:36:31;12.88;;;12.05;;
32228;SDS011;18717;48.034;11.186;2023-06-14T00:38:59;13.98;;;12.73;;
32228;SDS011;18717;48.034;11.186;2023-06-14T00:41:26;13.32;;;12.38;;
32228;SDS011;18717;48.034;11.186;2023-06-14T00:43:54;12.80;;;11.82;;
32228;SDS011;18717;48.034;11.186;2023-06-14T00:46:23;12.77;;;11.68;;
32228;SDS011;18717;48.034;11.186;2023-06-14T00:48:50;13.32;;;12.23;;
32228;SDS011;18717;48.034;11.186;2023-06-14T00:51:18;13.10;;;12.20;;
32228;SDS011;18717;48.034;11.186;2023-06-14T00:53:47;13.15;;;12.23;;
32228;SDS011;18717;48.034;11.186;2023-06-14T00:56:15;13.13;;;12.02;;
32228;SDS011;18717;48.034;11.186;2023-06-14T00:58:43;13.60;;;12.55;;
32228;SDS011;18717;48.034;11.186;2023-06-14T01:01:11;12.23;;;11.35;;
32228;SDS011;18717;48.034;11.186;2023-06-14T01:03:38;12.05;;;11.02;;
32228;SDS011;18717;48.034;11.186;2023-06-14T01:06:09;13.77;;;12.40;;
32228;SDS011;18717;48.034;11.186;2023-06-14T01:08:44;13.82;;;12.80;;
32228;SDS011;18717;48.034;11.186;2023-06-14T01:11:18;12.45;;;11.48;;
32228;SDS011;18717;48.034;11.186;2023-06-14T01:13:49;12.90;;;12.10;;
32228;SDS011;18717;48.034;11.186;2023-06-14T01:16:18;13.07;;;12.18;;
32228;SDS011;18717;48.034;11.186;2023-06-14T01:18:46;13.23;;;12.30;;
32228;SDS011;18717;48.034;11.186;2023-06-14T01:21:22;13.05;;;12.25;;
32228;SDS011;18717;48.034;11.186;2023-06-14T01:23:52;12.43;;;11.38;;
32228;SDS011;18717;48.034;11.186;2023-06-14T01:26:21;13.63;;;12.38;;
32228;SDS011;18717;48.034;11.186;2023-06-14T01:28:49;12.60;;;11.63;;
32228;SDS011;18717;48.034;11.186;2023-06-14T01:31:19;12.73;;;11.77;;
32228;SDS011;18717;48.034;11.186;2023-06-14T01:33:49;13.32;;;12.32;;
32228;SDS011;18717;48.034;11.186;2023-06-14T01:36:17;13.55;;;12.30;;
32228;SDS011;18717;48.034;11.186;2023-06-14T01:38:46;13.02;;;11.93;;
32228;SDS011;18717;48.034;11.186;2023-06-14T01:41:17;13.13;;;12.02;;
32228;SDS011;18717;48.034;11.186;2023-06-14T01:43:46;11.43;;;10.63;;
32228;SDS011;18717;48.034;11.186;2023-06-14T01:46:14;13.25;;;12.18;;
32228;SDS011;18717;48.034;11.186;2023-06-14T01:48:42;12.27;;;11.23;;
32228;SDS011;18717;48.034;11.186;2023-06-14T01:51:10;12.38;;;11.48;;
32228;SDS011;18717;48.034;11.186;2023-06-14T01:53:38;12.60;;;11.57;;
32228;SDS011;18717;48.034;11.186;2023-06-14T01:56:06;12.23;;;11.23;;
32228;SDS011;18717;48.034;11.186;2023-06-14T01:58:35;11.98;;;11.13;;
32228;SDS011;18717;48.034;11.186;2023-06-14T02:01:03;11.52;;;10.73;;
32228;SDS011;18717;48.034;11.186;2023-06-14T02:03:31;12.35;;;11.45;;
32228;SDS011;18717;48.034;11.186;2023-06-14T02:06:00;13.38;;;12.30;;
32228;SDS011;18717;48.034;11.186;2023-06-14T02:08:28;12.27;;;11.48;;
32228;SDS011;18717;48.034;11.186;2023-06-14T02:10:56;11.80;;;11.07;;
32228;SDS011;18717;48.034;11.186;2023-06-14T02:13:24;12.10;;;11.30;;
32228;SDS011;18717;48.034;11.186;2023-06-14T02:15:53;12.68;;;11.60;;
32228;SDS011;18717;48.034;11.186;2023-06-14T02:18:21;12.63;;;11.63;;
32228;SDS011;18717;48.034;11.186;2023-06-14T02:20:50;12.25;;;11.45;;
32228;SDS011;18717;48.034;11.186;2023-06-14T02:23:18;12.25;;;11.35;;
32228;SDS011;18717;48.034;11.186;2023-06-14T02:25:45;13.50;;;12.38;;
32228;SDS011;18717;48.034;11.186;2023-06-14T02:28:13;13.15;;;12.15;;
32228;SDS011;18717;48.034;11.186;2023-06-14T02:30:41;12.13;;;11.23;;
32228;SDS011;18717;48.034;11.186;2023-06-14T02:33:10;13.20;;;12.18;;
32228;SDS011;18717;48.034;11.186;2023-06-14T02:35:39;13.05;;;11.15;;
32228;SDS011;18717;48.034;11.186;2023-06-14T02:38:07;11.80;;;11.00;;
32228;SDS011;18717;48.034;11.186;2023-06-14T02:40:35;12.02;;;11.05;;
32228;SDS011;18717;48.034;11.186;2023-06-14T02:43:03;11.80;;;11.00;;
32228;SDS011;18717;48.034;11.186;2023-06-14T02:45:31;15.55;;;11.80;;
32228;SDS011;18717;48.034;11.186;2023-06-14T02:47:58;12.88;;;11.77;;
32228;SDS011;18717;48.034;11.186;2023-06-14T02:50:27;12.52;;;11.57;;
32228;SDS011;18717;48.034;11.186;2023-06-14T02:52:56;11.77;;;10.98;;
32228;SDS011;18717;48.034;11.186;2023-06-14T02:55:24;13.27;;;12.15;;
32228;SDS011;18717;48.034;11.186;2023-06-14T02:57:52;13.10;;;12.13;;
32228;SDS011;18717;48.034;11.186;2023-06-14T03:00:20;11.82;;;11.02;;
32228;SDS011;18717;48.034;11.186;2023-06-14T03:02:48;12.48;;;11.48;;
32228;SDS011;18717;48.034;11.186;2023-06-14T03:05:18;12.55;;;10.80;;
32228;SDS011;18717;48.034;11.186;2023-06-14T03:07:49;12.20;;;11.40;;
32228;SDS011;18717;48.034;11.186;2023-06-14T03:10:17;13.25;;;12.38;;
32228;SDS011;18717;48.034;11.186;2023-06-14T03:12:44;13.48;;;12.43;;
32228;SDS011;18717;48.034;11.186;2023-06-14T03:15:12;12.15;;;11.25;;
32228;SDS011;18717;48.034;11.186;2023-06-14T03:17:40;11.95;;;11.13;;
32228;SDS011;18717;48.034;11.186;2023-06-14T03:20:12;13.30;;;12.20;;
32228;SDS011;18717;48.034;11.186;2023-06-14T03:22:42;12.73;;;11.50;;
32228;SDS011;18717;48.034;11.186;2023-06-14T03:25:13;12.35;;;11.35;;
32228;SDS011;18717;48.034;11.186;2023-06-14T03:27:41;12.13;;;11.23;;
32228;SDS011;18717;48.034;11.186;2023-06-14T03:30:09;12.63;;;11.75;;
32228;SDS011;18717;48.034;11.186;2023-06-14T03:32:37;13.20;;;11.90;;
32228;SDS011;18717;48.034;11.186;2023-06-14T03:35:05;12.50;;;11.60;;
32228;SDS011;18717;48.034;11.186;2023-06-14T03:37:33;12.95;;;12.00;;
32228;SDS011;18717;48.034;11.186;2023-06-14T03:40:01;12.80;;;11.70;;
32228;SDS011;18717;48.034;11.186;2023-06-14T03:42:33;11.98;;;11.02;;
32228;SDS011;18717;48.034;11.186;2023-06-14T03:45:01;12.48;;;11.45;;
32228;SDS011;18717;48.034;11.186;2023-06-14T03:47:29;12.77;;;11.68;;
32228;SDS011;18717;48.034;11.186;2023-06-14T03:49:57;12.30;;;11.07;;
32228;SDS011;18717;48.034;11.186;2023-06-14T03:52:24;13.40;;;12.18;;
32228;SDS011;18717;48.034;11.186;2023-06-14T03:54:52;12.27;;;11.43;;
32228;SDS011;18717;48.034;11.186;2023-06-14T03:57:23;12.98;;;11.88;;
32228;SDS011;18717;48.034;11.186;2023-06-14T03:59:52;12.25;;;11.27;;
32228;SDS011;18717;48.034;11.186;2023-06-14T04:02:19;11.80;;;11.00;;
32228;SDS011;18717;48.034;11.186;2023-06-14T04:04:49;12.93;;;11.60;;
32228;SDS011;18717;48.034;11.186;2023-06-14T04:07:17;13.35;;;12.30;;
32228;SDS011;18717;48.034;11.186;2023-06-14T04:09:46;11.95;;;11.05;;
32228;SDS011;18717;48.034;11.186;2023-06-14T04:12:14;12.60;;;11.25;;
32228;SDS011;18717;48.034;11.186;2023-06-14T04:14:42;13.80;;;11.68;;
32228;SDS011;18717;48.034;11.186;2023-06-14T04:17:11;13.65;;;12.15;;
32228;SDS011;18717;48.034;11.186;2023-06-14T04:19:39;12.20;;;11.30;;
32228;SDS011;18717;48.034;11.186;2023-06-14T04:22:06;12.60;;;11.52;;
32228;SDS011;18717;48.034;11.186;2023-06-14T04:24:37;13.27;;;12.15;;
32228;SDS011;18717;48.034;11.186;2023-06-14T04:27:04;13.50;;;12.10;;
32228;SDS011;18717;48.034;11.186;2023-06-14T04:29:33;12.30;;;11.40;;
32228;SDS011;18717;48.034;11.186;2023-06-14T04:32:01;12.45;;;11.55;;
32228;SDS011;18717;48.034;11.186;2023-06-14T04:34:30;13.48;;;12.27;;
32228;SDS011;18717;48.034;11.186;2023-06-14T04:37:00;12.55;;;11.63;;
32228;SDS011;18717;48.034;11.186;2023-06-14T04:39:27;12.35;;;11.45;;
32228;SDS011;18717;48.034;11.186;2023-06-14T04:41:55;12.43;;;11.23;;
32228;SDS011;18717;48.034;11.186;2023-06-14T04:44:27;13.02;;;12.02;;
32228;SDS011;18717;48.034;11.186;2023-06-14T04:46:58;12.20;;;11.30;;
32228;SDS011;18717;48.034;11.186;2023-06-14T04:49:26;12.55;;;11.65;;
32228;SDS011;18717;48.034;11.186;2023-06-14T04:51:58;12.60;;;11.45;;
32228;SDS011;18717;48.034;11.186;2023-06-14T04:54:28;12.40;;;11.60;;
32228;SDS011;18717;48.034;11.186;2023-06-14T04:56:58;13.55;;;12.38;;
32228;SDS011;18717;48.034;11.186;2023-06-14T04:59:25;12.75;;;11.73;;
32228;SDS011;18717;48.034;11.186;2023-06-14T05:01:53;13.43;;;12.27;;
32228;SDS011;18717;48.034;11.186;2023-06-14T05:04:23;13.27;;;12.27;;
32228;SDS011;18717;48.034;11.186;2023-06-14T05:06:52;13.60;;;11.93;;
32228;SDS011;18717;48.034;11.186;2023-06-14T05:09:22;13.57;;;11.52;;
32228;SDS011;18717;48.034;11.186;2023-06-14T05:11:49;12.57;;;11.63;;
32228;SDS011;18717;48.034;11.186;2023-06-14T05:14:17;13.90;;;12.50;;
32228;SDS011;18717;48.034;11.186;2023-06-14T05:16:46;12.93;;;11.93;;
32228;SDS011;18717;48.034;11.186;2023-06-14T05:19:15;12.70;;;11.57;;
32228;SDS011;18717;48.034;11.186;2023-06-14T05:21:44;13.13;;;12.13;;
32228;SDS011;18717;48.034;11.186;2023-06-14T05:24:12;12.40;;;11.40;;
32228;SDS011;18717;48.034;11.186;2023-06-14T05:26:41;13.27;;;11.52;;
32228;SDS011;18717;48.034;11.186;2023-06-14T05:29:09;13.18;;;12.23;;
32228;SDS011;18717;48.034;11.186;2023-06-14T05:31:36;14.88;;;12.88;;
32228;SDS011;18717;48.034;11.186;2023-06-14T05:34:04;13.95;;;12.65;;
32228;SDS011;18717;48.034;11.186;2023-06-14T05:36:32;13.18;;;12.10;;
32228;SDS011;18717;48.034;11.186;2023-06-14T05:39:00;13.68;;;12.70;;
32228;SDS011;18717;48.034;11.186;2023-06-14T05:41:29;13.93;;;12.77;;
32228;SDS011;18717;48.034;11.186;2023-06-14T05:43:58;13.95;;;12.70;;
32228;SDS011;18717;48.034;11.186;2023-06-14T05:46:26;14.52;;;13.07;;
32228;SDS011;18717;48.034;11.186;2023-06-14T05:48:55;19.13;;;13.82;;
32228;SDS011;18717;48.034;11.186;2023-06-14T05:51:22;15.50;;;14.20;;
32228;SDS011;18717;48.034;11.186;2023-06-14T05:53:51;14.50;;;13.40;;
32228;SDS011;18717;48.034;11.186;2023-06-14T05:56:19;14.98;;;13.52;;
32228;SDS011;18717;48.034;11.186;2023-06-14T05:58:47;15.68;;;14.25;;
32228;SDS011;18717;48.034;11.186;2023-06-14T06:01:16;15.02;;;13.05;;
32228;SDS011;18717;48.034;11.186;2023-06-14T06:03:43;13.55;;;12.55;;
32228;SDS011;18717;48.034;11.186;2023-06-14T06:06:13;15.25;;;13.27;;
32228;SDS011;18717;48.034;11.186;2023-06-14T06:08:41;14.88;;;13.48;;
32228;SDS011;18717;48.034;11.186;2023-06-14T06:11:08;14.25;;;13.20;;
32228;SDS011;18717;48.034;11.186;2023-06-14T06:13:37;13.90;;;12.95;;
32228;SDS011;18717;48.034;11.186;2023-06-14T06:16:07;14.40;;;13.02;;
32228;SDS011;18717;48.034;11.186;2023-06-14T06:18:36;13.93;;;12.88;;
32228;SDS011;18717;48.034;11.186;2023-06-14T06:21:04;13.80;;;12.85;;
32228;SDS011;18717;48.034;11.186;2023-06-14T06:23:32;13.73;;;12.73;;
32228;SDS011;18717;48.034;11.186;2023-06-14T06:25:59;15.32;;;13.38;;
32228;SDS011;18717;48.034;11.186;2023-06-14T06:28:27;13.65;;;12.55;;
32228;SDS011;18717;48.034;11.186;2023-06-14T06:30:55;15.13;;;13.73;;
32228;SDS011;18717;48.034;11.186;2023-06-14T06:33:22;15.13;;;13.50;;
32228;SDS011;18717;48.034;11.186;2023-06-14T06:35:51;14.10;;;13.00;;
32228;SDS011;18717;48.034;11.186;2023-06-14T06:38:19;14.50;;;13.57;;
32228;SDS011;18717;48.034;11.186;2023-06-14T06:40:47;14.70;;;13.48;;
32228;SDS011;18717;48.034;11.186;2023-06-14T06:43:14;15.00;;;12.73;;
32228;SDS011;18717;48.034;11.186;2023-06-14T06:45:43;13.57;;;12.48;;
32228;SDS011;18717;48.034;11.186;2023-06-14T06:48:10;15.45;;;14.27;;
32228;SDS011;18717;48.034;11.186;2023-06-14T06:50:38;15.13;;;13.57;;
32228;SDS011;18717;48.034;11.186;2023-06-14T06:53:07;14.30;;;13.15;;
32228;SDS011;18717;48.034;11.186;2023-06-14T06:55:35;14.40;;;12.82;;
32228;SDS011;18717;48.034;11.186;2023-06-14T06:58:03;14.77;;;13.25;;
32228;SDS011;18717;48.034;11.186;2023-06-14T07:00:31;14.88;;;13.70;;
32228;SDS011;18717;48.034;11.186;2023-06-14T07:02:59;14.90;;;13.80;;
32228;SDS011;18717;48.034;11.186;2023-06-14T07:05:27;14.77;;;13.77;;
32228;SDS011;18717;48.034;11.186;2023-06-14T07:07:55;14.02;;;12.93;;
32228;SDS011;18717;48.034;11.186;2023-06-14T07:10:25;14.73;;;13.65;;
32228;SDS011;18717;48.034;11.186;2023-06-14T07:12:52;14.45;;;13.00;;
32228;SDS011;18717;48.034;11.186;2023-06-14T07:15:20;14.50;;;13.15;;
32228;SDS011;18717;48.034;11.186;2023-06-14T07:17:48;14.65;;;13.60;;
32228;SDS011;18717;48.034;11.186;2023-06-14T07:20:17;14.60;;;13.63;;
32228;SDS011;18717;48.034;11.186;2023-06-14T07:22:47;14.45;;;13.25;;
32228;SDS011;18717;48.034;11.186;2023-06-14T07:25:15;14.48;;;13.57;;
32228;SDS011;18717;48.034;11.186;2023-06-14T07:27:47;14.67;;;13.47;;
32228;SDS011;18717;48.034;11.186;2023-06-14T07:30:15;15.82;;;14.63;;
32228;SDS011;18717;48.034;11.186;2023-06-14T07:32:43;14.80;;;13.80;;
32228;SDS011;18717;48.034;11.186;2023-06-14T07:35:11;14.70;;;13.50;;
32228;SDS011;18717;48.034;11.186;2023-06-14T07:37:39;14.40;;;13.40;;
32228;SDS011;18717;48.034;11.186;2023-06-14T07:40:07;14.18;;;13.23;;
32228;SDS011;18717;48.034;11.186;2023-06-14T07:42:36;15.05;;;13.77;;
32228;SDS011;18717;48.034;11.186;2023-06-14T07:45:06;15.07;;;13.70;;
32228;SDS011;18717;48.034;11.186;2023-06-14T07:47:34;15.20;;;14.05;;
32228;SDS011;18717;48.034;11.186;2023-06-14T07:50:02;14.98;;;13.73;;
32228;SDS011;18717;48.034;11.186;2023-06-14T07:52:30;15.05;;;13.90;;
32228;SDS011;18717;48.034;11.186;2023-06-14T07:54:58;15.80;;;13.38;;
32228;SDS011;18717;48.034;11.186;2023-06-14T07:57:26;14.95;;;13.80;;
32228;SDS011;18717;48.034;11.186;2023-06-14T07:59:54;14.93;;;13.60;;
32228;SDS011;18717;48.034;11.186;2023-06-14T08:02:23;14.55;;;13.50;;
32228;SDS011;18717;48.034;11.186;2023-06-14T08:04:51;15.95;;;14.85;;
32228;SDS011;18717;48.034;11.186;2023-06-14T08:07:19;15.77;;;14.55;;
32228;SDS011;18717;48.034;11.186;2023-06-14T08:09:47;15.32;;;13.80;;
32228;SDS011;18717;48.034;11.186;2023-06-14T08:12:14;16.52;;;14.30;;
32228;SDS011;18717;48.034;11.186;2023-06-14T08:14:42;14.70;;;13.38;;
32228;SDS011;18717;48.034;11.186;2023-06-14T08:17:10;14.48;;;13.48;;
32228;SDS011;18717;48.034;11.186;2023-06-14T08:19:39;14.50;;;13.50;;
32228;SDS011;18717;48.034;11.186;2023-06-14T08:22:07;14.18;;;13.25;;
32228;SDS011;18717;48.034;11.186;2023-06-14T08:24:38;14.90;;;13.93;;
32228;SDS011;18717;48.034;11.186;2023-06-14T08:27:06;15.88;;;14.68;;
32228;SDS011;18717;48.034;11.186;2023-06-14T08:29:35;15.02;;;14.18;;
32228;SDS011;18717;48.034;11.186;2023-06-14T08:32:04;14.85;;;13.75;;
32228;SDS011;18717;48.034;11.186;2023-06-14T08:34:33;14.13;;;13.32;;
32228;SDS011;18717;48.034;11.186;2023-06-14T08:37:02;15.88;;;14.95;;
32228;SDS011;18717;48.034;11.186;2023-06-14T08:39:30;15.07;;;14.18;;
32228;SDS011;18717;48.034;11.186;2023-06-14T08:41:57;14.43;;;13.50;;
32228;SDS011;18717;48.034;11.186;2023-06-14T08:44:25;15.63;;;14.73;;
32228;SDS011;18717;48.034;11.186;2023-06-14T08:46:53;14.82;;;13.82;;
32228;SDS011;18717;48.034;11.186;2023-06-14T08:49:23;15.52;;;14.40;;
32228;SDS011;18717;48.034;11.186;2023-06-14T08:51:53;14.82;;;13.73;;
32228;SDS011;18717;48.034;11.186;2023-06-14T08:54:26;14.43;;;13.63;;
32228;SDS011;18717;48.034;11.186;2023-06-14T08:56:56;14.77;;;13.80;;
32228;SDS011;18717;48.034;11.186;2023-06-14T08:59:24;15.20;;;14.30;;
32228;SDS011;18717;48.034;11.186;2023-06-14T09:01:53;15.00;;;14.10;;
32228;SDS011;18717;48.034;11.186;2023-06-14T09:04:37;15.85;;;14.75;;
32228;SDS011;18717;48.034;11.186;2023-06-14T09:07:05;14.85;;;13.93;;
32228;SDS011;18717;48.034;11.186;2023-06-14T09:09:34;14.90;;;13.90;;
32228;SDS011;18717;48.034;11.186;2023-06-14T09:12:13;16.35;;;15.25;;
32228;SDS011;18717;48.034;11.186;2023-06-14T09:14:40;14.73;;;13.82;;
32228;SDS011;18717;48.034;11.186;2023-06-14T09:17:08;15.40;;;14.40;;
32228;SDS011;18717;48.034;11.186;2023-06-14T09:22:08;15.60;;;14.50;;
32228;SDS011;18717;48.034;11.186;2023-06-14T09:24:39;15.80;;;14.80;;
32228;SDS011;18717;48.034;11.186;2023-06-14T09:27:09;15.65;;;14.35;;
32228;SDS011;18717;48.034;11.186;2023-06-14T09:29:42;15.98;;;14.65;;
32228;SDS011;18717;48.034;11.186;2023-06-14T09:32:10;15.50;;;14.35;;
32228;SDS011;18717;48.034;11.186;2023-06-14T09:34:38;16.00;;;14.50;;
32228;SDS011;18717;48.034;11.186;2023-06-14T09:37:06;15.27;;;14.18;;
32228;SDS011;18717;48.034;11.186;2023-06-14T09:39:33;15.93;;;14.43;;
32228;SDS011;18717;48.034;11.186;2023-06-14T09:42:03;15.57;;;14.48;;
32228;SDS011;18717;48.034;11.186;2023-06-14T09:44:44;15.60;;;14.52;;
32228;SDS011;18717;48.034;11.186;2023-06-14T09:47:12;15.30;;;14.23;;
32228;SDS011;18717;48.034;11.186;2023-06-14T09:49:40;15.45;;;14.27;;
32228;SDS011;18717;48.034;11.186;2023-06-14T09:52:08;14.43;;;13.43;;
32228;SDS011;18717;48.034;11.186;2023-06-14T09:54:40;15.70;;;14.68;;
32228;SDS011;18717;48.034;11.186;2023-06-14T09:57:10;15.88;;;14.52;;
32228;SDS011;18717;48.034;11.186;2023-06-14T09:59:39;15.48;;;14.45;;
32228;SDS011;18717;48.034;11.186;2023-06-14T10:02:10;15.68;;;14.68;;
32228;SDS011;18717;48.034;11.186;2023-06-14T10:04:41;16.17;;;14.95;;
32228;SDS011;18717;48.034;11.186;2023-06-14T10:07:14;16.20;;;15.20;;
32228;SDS011;18717;48.034;11.186;2023-06-14T10:09:46;15.73;;;14.55;;
32228;SDS011;18717;48.034;11.186;2023-06-14T10:12:17;15.40;;;14.30;;
32228;SDS011;18717;48.034;11.186;2023-06-14T10:14:48;15.77;;;14.50;;
32228;SDS011;18717;48.034;11.186;2023-06-14T10:17:20;16.13;;;14.77;;
32228;SDS011;18717;48.034;11.186;2023-06-14T10:19:54;16.27;;;15.15;;
32228;SDS011;18717;48.034;11.186;2023-06-14T10:22:25;16.15;;;15.10;;
32228;SDS011;18717;48.034;11.186;2023-06-14T10:24:56;15.77;;;14.43;;
32228;SDS011;18717;48.034;11.186;2023-06-14T10:27:25;15.55;;;14.40;;
32228;SDS011;18717;48.034;11.186;2023-06-14T10:30:01;14.43;;;13.63;;
32228;SDS011;18717;48.034;11.186;2023-06-14T10:32:31;16.70;;;15.27;;
32228;SDS011;18717;48.034;11.186;2023-06-14T10:34:59;15.80;;;14.80;;
32228;SDS011;18717;48.034;11.186;2023-06-14T10:37:28;16.35;;;14.93;;
32228;SDS011;18717;48.034;11.186;2023-06-14T10:39:56;15.52;;;14.60;;
32228;SDS011;18717;48.034;11.186;2023-06-14T10:42:23;15.73;;;14.65;;
32228;SDS011;18717;48.034;11.186;2023-06-14T10:44:58;15.68;;;14.57;;
32228;SDS011;18717;48.034;11.186;2023-06-14T10:47:27;16.60;;;15.55;;
32228;SDS011;18717;48.034;11.186;2023-06-14T10:49:56;16.30;;;15.30;;
32228;SDS011;18717;48.034;11.186;2023-06-14T10:52:27;16.70;;;15.57;;
32228;SDS011;18717;48.034;11.186;2023-06-14T10:54:59;18.15;;;16.35;;
32228;SDS011;18717;48.034;11.186;2023-06-14T10:57:37;16.33;;;14.85;;
32228;SDS011;18717;48.034;11.186;2023-06-14T11:00:16;15.65;;;14.65;;
32228;SDS011;18717;48.034;11.186;2023-06-14T11:05:51;15.23;;;14.32;;
32228;SDS011;18717;48.034;11.186;2023-06-14T11:11:20;15.50;;;14.50;;
32228;SDS011;18717;48.034;11.186;2023-06-14T11:13:51;15.43;;;14.27;;
32228;SDS011;18717;48.034;11.186;2023-06-14T11:16:18;15.85;;;14.75;;
32228;SDS011;18717;48.034;11.186;2023-06-14T11:18:46;15.05;;;14.25;;
32228;SDS011;18717;48.034;11.186;2023-06-14T11:21:15;14.98;;;13.98;;
32228;SDS011;18717;48.034;11.186;2023-06-14T11:23:48;15.48;;;14.38;;
32228;SDS011;18717;48.034;11.186;2023-06-14T11:26:23;15.43;;;14.40;;
32228;SDS011;18717;48.034;11.186;2023-06-14T11:28:55;16.45;;;15.27;;
32228;SDS011;18717;48.034;11.186;2023-06-14T11:31:24;16.00;;;14.75;;
32228;SDS011;18717;48.034;11.186;2023-06-14T11:33:53;15.88;;;14.65;;
32228;SDS011;18717;48.034;11.186;2023-06-14T11:36:21;14.52;;;13.57;;
32228;SDS011;18717;48.034;11.186;2023-06-14T11:38:49;17.90;;;14.18;;
32228;SDS011;18717;48.034;11.186;2023-06-14T11:41:19;15.38;;;14.23;;
32228;SDS011;18717;48.034;11.186;2023-06-14T11:43:47;15.30;;;14.05;;
32228;SDS011;18717;48.034;11.186;2023-06-14T11:46:15;15.95;;;14.52;;
32228;SDS011;18717;48.034;11.186;2023-06-14T11:48:48;16.10;;;14.88;;
32228;SDS011;18717;48.034;11.186;2023-06-14T11:51:15;15.57;;;14.35;;
32228;SDS011;18717;48.034;11.186;2023-06-14T11:53:44;15.43;;;14.43;;
32228;SDS011;18717;48.034;11.186;2023-06-14T11:56:12;15.20;;;14.18;;
32228;SDS011;18717;48.034;11.186;2023-06-14T11:58:42;16.27;;;15.00;;
32228;SDS011;18717;48.034;11.186;2023-06-14T12:01:14;15.65;;;14.75;;
32228;SDS011;18717;48.034;11.186;2023-06-14T12:03:47;15.90;;;14.52;;
32228;SDS011;18717;48.034;11.186;2023-06-14T12:06:15;15.93;;;14.63;;
32228;SDS011;18717;48.034;11.186;2023-06-14T12:08:45;15.63;;;14.60;;
32228;SDS011;18717;48.034;11.186;2023-06-14T12:11:15;15.98;;;14.77;;
32228;SDS011;18717;48.034;11.186;2023-06-14T12:13:43;15.93;;;14.80;;
32228;SDS011;18717;48.034;11.186;2023-06-14T12:16:11;15.93;;;14.85;;
32228;SDS011;18717;48.034;11.186;2023-06-14T12:18:41;15.32;;;14.43;;
32228;SDS011;18717;48.034;11.186;2023-06-14T12:21:09;15.20;;;14.40;;
32228;SDS011;18717;48.034;11.186;2023-06-14T12:23:44;16.27;;;14.88;;
32228;SDS011;18717;48.034;11.186;2023-06-14T12:26:13;15.82;;;14.45;;
32228;SDS011;18717;48.034;11.186;2023-06-14T12:28:42;15.82;;;14.88;;
32228;SDS011;18717;48.034;11.186;2023-06-14T12:31:10;16.50;;;15.07;;
32228;SDS011;18717;48.034;11.186;2023-06-14T12:33:39;15.88;;;14.65;;
32228;SDS011;18717;48.034;11.186;2023-06-14T12:36:09;15.85;;;14.52;;
32228;SDS011;18717;48.034;11.186;2023-06-14T12:38:37;16.90;;;15.40;;
32228;SDS011;18717;48.034;11.186;2023-06-14T12:41:05;15.50;;;14.45;;
32228;SDS011;18717;48.034;11.186;2023-06-14T12:43:34;16.67;;;15.27;;
32228;SDS011;18717;48.034;11.186;2023-06-14T12:46:01;14.95;;;14.15;;
32228;SDS011;18717;48.034;11.186;2023-06-14T12:48:29;15.88;;;14.65;;
32228;SDS011;18717;48.034;11.186;2023-06-14T12:50:59;23.88;;;15.55;;
32228;SDS011;18717;48.034;11.186;2023-06-14T12:53:26;16.50;;;15.43;;
32228;SDS011;18717;48.034;11.186;2023-06-14T12:55:54;16.58;;;14.60;;
32228;SDS011;18717;48.034;11.186;2023-06-14T12:58:22;15.80;;;14.60;;
32228;SDS011;18717;48.034;11.186;2023-06-14T13:00:50;15.65;;;14.60;;
32228;SDS011;18717;48.034;11.186;2023-06-14T13:03:18;15.55;;;14.30;;
32228;SDS011;18717;48.034;11.186;2023-06-14T13:05:46;15.70;;;14.52;;
32228;SDS011;18717;48.034;11.186;2023-06-14T13:08:15;15.77;;;14.18;;
32228;SDS011;18717;48.034;11.186;2023-06-14T13:10:42;17.73;;;16.05;;
32228;SDS011;18717;48.034;11.186;2023-06-14T13:13:10;16.00;;;14.88;;
32228;SDS011;18717;48.034;11.186;2023-06-14T13:15:38;15.93;;;14.70;;
32228;SDS011;18717;48.034;11.186;2023-06-14T13:18:06;16.20;;;14.80;;
32228;SDS011;18717;48.034;11.186;2023-06-14T13:20:34;16.90;;;14.82;;
32228;SDS011;18717;48.034;11.186;2023-06-14T13:23:02;15.77;;;14.75;;
32228;SDS011;18717;48.034;11.186;2023-06-14T13:25:33;16.67;;;15.48;;
32228;SDS011;18717;48.034;11.186;2023-06-14T13:28:01;15.82;;;14.88;;
32228;SDS011;18717;48.034;11.186;2023-06-14T13:30:29;15.75;;;14.68;;
32228;SDS011;18717;48.034;11.186;2023-06-14T13:32:57;16.30;;;15.20;;
32228;SDS011;18717;48.034;11.186;2023-06-14T13:35:25;15.68;;;14.50;;
32228;SDS011;18717;48.034;11.186;2023-06-14T13:37:53;16.02;;;14.63;;
32228;SDS011;18717;48.034;11.186;2023-06-14T13:40:21;15.65;;;14.45;;
32228;SDS011;18717;48.034;11.186;2023-06-14T13:42:50;16.63;;;15.23;;
32228;SDS011;18717;48.034;11.186;2023-06-14T13:45:18;16.27;;;15.18;;
32228;SDS011;18717;48.034;11.186;2023-06-14T13:47:45;15.63;;;14.45;;
32228;SDS011;18717;48.034;11.186;2023-06-14T13:50:16;16.13;;;15.13;;
32228;SDS011;18717;48.034;11.186;2023-06-14T13:52:44;16.63;;;15.20;;
32228;SDS011;18717;48.034;11.186;2023-06-14T13:55:12;16.05;;;15.05;;
32228;SDS011;18717;48.034;11.186;2023-06-14T13:57:40;15.00;;;14.00;;
32228;SDS011;18717;48.034;11.186;2023-06-14T14:00:10;16.33;;;15.07;;
32228;SDS011;18717;48.034;11.186;2023-06-14T14:02:38;14.80;;;13.65;;
32228;SDS011;18717;48.034;11.186;2023-06-14T14:05:07;15.45;;;14.45;;
32228;SDS011;18717;48.034;11.186;2023-06-14T14:07:36;16.40;;;15.10;;
32228;SDS011;18717;48.034;11.186;2023-06-14T14:10:04;16.02;;;14.80;;
32228;SDS011;18717;48.034;11.186;2023-06-14T14:12:33;15.65;;;14.45;;
32228;SDS011;18717;48.034;11.186;2023-06-14T14:15:01;15.88;;;14.50;;
32228;SDS011;18717;48.034;11.186;2023-06-14T14:17:30;15.52;;;14.57;;
32228;SDS011;18717;48.034;11.186;2023-06-14T14:19:57;15.93;;;14.93;;
32228;SDS011;18717;48.034;11.186;2023-06-14T14:22:25;15.32;;;14.07;;
32228;SDS011;18717;48.034;11.186;2023-06-14T14:24:53;16.40;;;15.38;;
32228;SDS011;18717;48.034;11.186;2023-06-14T14:27:20;15.38;;;14.07;;